createdAt,value
2019-05-09T00:02:00.159Z,10.40
2019-05-09T00:04:30.511Z,10.50
2019-05-09T00:06:59.942Z,10.40
2019-05-09T00:09:31.029Z,10.30
2019-05-09T00:12:00.505Z,10.30
2019-05-09T00:14:34.215Z,10.30
2019-05-09T00:17:05.996Z,10.30
2019-05-09T00:19:35.540Z,10.30
2019-05-09T00:22:07.330Z,10.30
2019-05-09T00:24:38.780Z,10.30
2019-05-09T00:27:08.313Z,10.20
2019-05-09T00:29:39.500Z,10.20
2019-05-09T00:32:13.575Z,10.30
2019-05-09T00:34:53.134Z,10.30
2019-05-09T00:37:43.071Z,10.20
2019-05-09T00:40:13.363Z,10.20
2019-05-09T00:42:44.072Z,10.20
2019-05-09T00:45:15.344Z,10.20
2019-05-09T00:47:44.845Z,10.20
2019-05-09T00:50:14.422Z,10.10
2019-05-09T00:52:44.884Z,10.20
2019-05-09T00:55:14.478Z,10.20
2019-05-09T00:57:44.045Z,10.20
2019-05-09T01:00:17.818Z,10.20
2019-05-09T01:02:50.394Z,10.30
2019-05-09T01:05:20.130Z,10.20
2019-05-09T01:07:49.594Z,10.30
2019-05-09T01:10:19.157Z,10.30
2019-05-09T01:12:50.356Z,10.20
2019-05-09T01:15:23.958Z,10.20
2019-05-09T01:17:55.120Z,10.30
2019-05-09T01:20:24.599Z,10.20
2019-05-09T01:22:54.212Z,10.20
2019-05-09T01:25:25.870Z,10.20
2019-05-09T01:27:56.288Z,10.10
2019-05-09T01:30:25.825Z,10.20
2019-05-09T01:33:04.594Z,10.10
2019-05-09T01:35:34.142Z,10.10
2019-05-09T01:38:04.313Z,10.10
2019-05-09T01:40:36.208Z,10.10
2019-05-09T01:43:06.526Z,10.10
2019-05-09T01:45:37.054Z,10.10
2019-05-09T01:48:08.575Z,10.10
2019-05-09T01:50:38.124Z,10.10
2019-05-09T01:53:07.652Z,10.10
2019-05-09T01:55:57.988Z,10.20
2019-05-09T01:58:34.217Z,10.20
2019-05-09T02:01:05.638Z,10.20
2019-05-09T02:03:35.447Z,10.10
2019-05-09T02:06:05.661Z,10.10
2019-05-09T02:08:36.123Z,10.00
2019-05-09T02:11:07.481Z,10.10
2019-05-09T02:13:38.177Z,10.10
2019-05-09T02:16:09.388Z,10.10
2019-05-09T02:18:44.088Z,10.00
2019-05-09T02:21:14.575Z,10.10
2019-05-09T02:23:44.250Z,10.10
2019-05-09T02:26:16.133Z,10.10
2019-05-09T02:28:45.642Z,10.10
2019-05-09T02:31:16.646Z,10.10
2019-05-09T02:33:46.208Z,10.00
2019-05-09T02:36:18.695Z,10.10
2019-05-09T02:38:48.685Z,10.20
2019-05-09T02:41:20.087Z,10.10
2019-05-09T02:43:49.961Z,10.10
2019-05-09T02:46:29.469Z,10.10
2019-05-09T02:48:59.629Z,10.00
2019-05-09T02:51:30.001Z,10.10
2019-05-09T02:54:00.431Z,10.10
2019-05-09T02:56:30.233Z,10.10
2019-05-09T02:59:04.221Z,10.10
2019-05-09T03:01:41.115Z,10.00
2019-05-09T03:04:11.501Z,10.00
2019-05-09T03:06:43.022Z,10.00
2019-05-09T03:09:13.387Z,9.90
2019-05-09T03:11:43.014Z,9.90
2019-05-09T03:14:13.977Z,9.90
2019-05-09T03:16:44.687Z,9.90
2019-05-09T03:19:14.187Z,9.90
2019-05-09T03:21:49.315Z,9.90
2019-05-09T03:24:21.876Z,9.90
2019-05-09T03:26:54.056Z,9.90
2019-05-09T03:29:29.166Z,9.90
2019-05-09T03:32:00.195Z,9.80
2019-05-09T03:34:30.355Z,9.70
2019-05-09T03:36:59.850Z,9.70
2019-05-09T03:39:31.024Z,9.80
2019-05-09T03:42:00.426Z,9.80
2019-05-09T03:44:33.029Z,9.80
2019-05-09T03:47:04.182Z,9.80
2019-05-09T03:49:37.694Z,9.80
2019-05-09T03:52:08.965Z,9.70
2019-05-09T03:54:41.442Z,9.70
2019-05-09T03:57:14.467Z,9.80
2019-05-09T03:59:43.949Z,9.70
2019-05-09T04:02:17.666Z,9.60
2019-05-09T04:04:47.530Z,9.60
2019-05-09T04:07:18.606Z,9.50
2019-05-09T04:09:48.068Z,9.50
2019-05-09T04:12:18.324Z,9.50
2019-05-09T04:14:48.190Z,9.60
2019-05-09T04:17:18.214Z,9.70
2019-05-09T04:19:50.427Z,9.80
2019-05-09T04:22:20.411Z,9.80
2019-05-09T04:24:50.234Z,9.90
2019-05-09T04:27:22.573Z,9.90
2019-05-09T04:29:52.622Z,10.00
2019-05-09T04:32:23.030Z,10.00
2019-05-09T04:34:54.105Z,10.00
2019-05-09T04:37:23.526Z,10.00
2019-05-09T04:39:54.076Z,10.10
2019-05-09T04:42:25.120Z,10.10
2019-05-09T04:45:02.785Z,10.00
2019-05-09T04:47:28.460Z,10.10
2019-05-09T04:49:58.906Z,10.30
2019-05-09T04:52:29.383Z,10.30
2019-05-09T04:54:59.079Z,10.50
2019-05-09T04:57:32.762Z,10.50
2019-05-09T05:00:04.790Z,10.60
2019-05-09T05:02:37.977Z,10.50
2019-05-09T05:05:07.921Z,10.60
2019-05-09T05:07:40.450Z,10.80
2019-05-09T05:10:09.954Z,10.70
2019-05-09T05:12:39.438Z,10.70
2019-05-09T05:15:09.377Z,10.70
2019-05-09T05:17:42.698Z,10.70
2019-05-09T05:20:18.719Z,10.70
2019-05-09T05:22:58.430Z,10.70
2019-05-09T05:25:31.768Z,10.80
2019-05-09T05:28:02.163Z,10.80
2019-05-09T05:30:33.323Z,10.90
2019-05-09T05:33:05.333Z,10.90
2019-05-09T05:35:39.315Z,11.10
2019-05-09T05:38:08.875Z,11.30
2019-05-09T05:40:45.126Z,11.20
2019-05-09T05:43:12.294Z,11.30
2019-05-09T05:45:43.361Z,11.20
2019-05-09T05:48:23.927Z,11.40
2019-05-09T05:50:57.808Z,11.40
2019-05-09T05:53:27.746Z,11.40
2019-05-09T05:56:03.289Z,11.50
2019-05-09T05:58:32.790Z,11.40
2019-05-09T06:01:04.561Z,11.40
2019-05-09T06:03:33.944Z,11.50
2019-05-09T06:06:03.464Z,11.70
2019-05-09T06:08:32.922Z,11.80
2019-05-09T06:11:03.519Z,11.80
2019-05-09T06:13:32.984Z,11.90
2019-05-09T06:16:04.729Z,12.30
2019-05-09T06:18:35.163Z,12.40
2019-05-09T06:21:04.760Z,12.30
2019-05-09T06:23:37.293Z,12.50
2019-05-09T06:26:09.843Z,12.70
2019-05-09T06:28:40.325Z,12.80
2019-05-09T06:34:08.172Z,12.90
2019-05-09T06:36:38.891Z,12.90
2019-05-09T06:39:10.042Z,12.90
2019-05-09T06:41:40.164Z,12.80
2019-05-09T06:44:19.637Z,12.80
2019-05-09T06:46:53.643Z,12.90
2019-05-09T06:49:29.371Z,13.10
2019-05-09T06:51:59.592Z,13.10
2019-05-09T06:54:31.631Z,13.20
2019-05-09T06:57:01.162Z,13.40
2019-05-09T06:59:30.668Z,13.50
2019-05-09T07:02:01.755Z,13.60
2019-05-09T07:04:37.998Z,13.80
2019-05-09T07:07:18.131Z,13.80
2019-05-09T07:09:51.776Z,13.90
2019-05-09T07:12:22.366Z,14.00
2019-05-09T07:14:53.821Z,14.20
2019-05-09T07:17:24.660Z,14.40
2019-05-09T07:19:54.148Z,14.50
2019-05-09T07:22:27.844Z,14.40
2019-05-09T07:25:10.265Z,14.20
2019-05-09T07:27:40.974Z,13.80
2019-05-09T07:30:13.851Z,13.80
2019-05-09T07:32:48.674Z,13.90
2019-05-09T07:35:18.711Z,13.90
2019-05-09T07:37:49.274Z,14.00
2019-05-09T07:40:22.052Z,14.00
2019-05-09T07:42:50.779Z,14.10
2019-05-09T07:45:21.797Z,14.10
2019-05-09T07:47:51.225Z,14.10
2019-05-09T07:50:20.827Z,14.20
2019-05-09T07:52:52.230Z,14.30
2019-05-09T07:55:21.807Z,14.50
2019-05-09T07:57:55.393Z,14.70
2019-05-09T08:00:33.950Z,14.60
2019-05-09T08:03:03.837Z,14.70
2019-05-09T08:05:33.406Z,14.80
2019-05-09T08:08:08.158Z,15.00
2019-05-09T08:10:41.108Z,15.00
2019-05-09T08:13:12.100Z,15.10
2019-05-09T08:15:41.018Z,15.00
2019-05-09T08:18:11.676Z,15.00
2019-05-09T08:20:43.160Z,14.70
2019-05-09T08:23:12.743Z,14.70
2019-05-09T08:25:43.541Z,14.80
2019-05-09T08:28:13.165Z,15.00
2019-05-09T08:30:43.187Z,15.30
2019-05-09T08:33:12.613Z,15.50
2019-05-09T08:35:43.073Z,15.50
2019-05-09T08:38:14.637Z,15.70
2019-05-09T08:40:44.232Z,15.90
2019-05-09T08:43:15.037Z,15.80
2019-05-09T08:45:44.516Z,15.90
2019-05-09T08:48:14.020Z,15.60
2019-05-09T08:50:47.909Z,15.50
2019-05-09T08:53:15.641Z,15.80
2019-05-09T08:55:47.364Z,15.70
2019-05-09T08:58:19.296Z,15.40
2019-05-09T09:00:49.062Z,15.40
2019-05-09T09:03:20.707Z,15.40
2019-05-09T09:05:51.214Z,14.90
2019-05-09T09:08:22.296Z,14.80
2019-05-09T09:10:53.733Z,14.50
2019-05-09T09:13:23.201Z,14.50
2019-05-09T09:16:12.140Z,14.20
2019-05-09T09:18:28.156Z,14.10
2019-05-09T09:20:58.874Z,14.10
2019-05-09T09:23:42.380Z,14.30
2019-05-09T09:26:00.046Z,14.10
2019-05-09T09:28:31.448Z,13.90
2019-05-09T09:31:01.044Z,14.30
2019-05-09T09:33:31.414Z,14.70
2019-05-09T09:36:01.761Z,15.00
2019-05-09T09:38:31.218Z,15.10
2019-05-09T09:41:01.592Z,15.40
2019-05-09T09:43:31.079Z,15.70
2019-05-09T09:46:10.455Z,15.80
2019-05-09T09:48:33.187Z,15.90
2019-05-09T09:51:02.617Z,15.40
2019-05-09T09:53:32.171Z,15.10
2019-05-09T09:56:01.694Z,15.30
2019-05-09T09:58:32.087Z,15.60
2019-05-09T10:01:24.015Z,15.60
2019-05-09T10:03:55.157Z,15.60
2019-05-09T10:06:24.797Z,15.70
2019-05-09T10:08:58.501Z,15.90
2019-05-09T10:11:29.235Z,16.00
2019-05-09T10:13:59.733Z,16.30
2019-05-09T10:16:34.231Z,16.50
2019-05-09T10:19:08.780Z,16.60
2019-05-09T10:21:42.898Z,16.50
2019-05-09T10:24:13.329Z,16.40
2019-05-09T10:26:59.569Z,16.40
2019-05-09T10:29:29.914Z,16.60
2019-05-09T10:32:00.272Z,16.90
2019-05-09T10:34:33.264Z,16.80
2019-05-09T10:37:03.143Z,16.60
2019-05-09T10:39:34.431Z,16.30
2019-05-09T10:42:07.934Z,16.30
2019-05-09T10:44:44.738Z,16.10
2019-05-09T10:47:15.867Z,15.80
2019-05-09T10:49:45.321Z,15.40
2019-05-09T10:52:14.850Z,15.20
2019-05-09T10:54:50.498Z,14.80
2019-05-09T10:57:21.461Z,14.80
2019-05-09T10:59:50.940Z,14.80
2019-05-09T11:02:21.117Z,14.90
2019-05-09T11:04:50.579Z,15.10
2019-05-09T11:07:20.392Z,15.10
2019-05-09T11:09:50.731Z,15.00
2019-05-09T11:12:23.610Z,15.10
2019-05-09T11:14:52.255Z,15.40
2019-05-09T11:17:23.959Z,15.40
2019-05-09T11:19:54.716Z,15.40
2019-05-09T11:22:29.287Z,15.80
2019-05-09T11:25:00.303Z,16.10
2019-05-09T11:27:29.733Z,16.20
2019-05-09T11:30:01.174Z,16.20
2019-05-09T11:32:33.202Z,16.40
2019-05-09T11:35:02.746Z,16.90
2019-05-09T11:37:33.244Z,17.50
2019-05-09T11:40:04.387Z,17.80
2019-05-09T11:42:33.827Z,18.00
2019-05-09T11:45:03.953Z,17.90
2019-05-09T11:47:44.738Z,17.60
2019-05-09T11:50:08.771Z,17.30
2019-05-09T11:52:38.390Z,16.60
2019-05-09T11:55:28.875Z,15.90
2019-05-09T11:57:48.343Z,15.60
2019-05-09T12:00:18.525Z,15.20
2019-05-09T12:02:50.043Z,15.20
2019-05-09T12:05:19.374Z,15.50
2019-05-09T12:07:49.039Z,15.80
2019-05-09T12:10:18.831Z,16.00
2019-05-09T12:12:49.329Z,16.00
2019-05-09T12:15:20.638Z,15.90
2019-05-09T12:17:57.925Z,16.00
2019-05-09T12:20:21.247Z,15.80
2019-05-09T12:22:51.315Z,15.70
2019-05-09T12:25:20.730Z,15.90
2019-05-09T12:27:50.201Z,16.00
2019-05-09T12:30:21.687Z,16.10
2019-05-09T12:32:52.776Z,16.40
2019-05-09T12:35:22.269Z,17.30
2019-05-09T12:37:54.483Z,18.60
2019-05-09T12:40:23.992Z,19.20
2019-05-09T12:42:56.868Z,19.70
2019-05-09T12:45:27.443Z,19.50
2019-05-09T12:48:07.594Z,19.70
2019-05-09T12:50:29.408Z,19.80
2019-05-09T12:53:02.530Z,20.00
2019-05-09T12:55:31.993Z,20.40
2019-05-09T12:58:06.721Z,20.50
2019-05-09T13:00:38.788Z,20.80
2019-05-09T13:03:08.796Z,20.60
2019-05-09T13:05:41.024Z,20.30
2019-05-09T13:08:10.686Z,21.10
2019-05-09T13:10:42.623Z,20.60
2019-05-09T13:13:13.817Z,21.20
2019-05-09T13:15:49.903Z,20.80
2019-05-09T13:18:24.967Z,20.30
2019-05-09T13:20:51.362Z,20.20
2019-05-09T13:23:23.128Z,20.50
2019-05-09T13:25:53.491Z,21.20
2019-05-09T13:28:26.023Z,21.20
2019-05-09T13:30:58.500Z,21.00
2019-05-09T13:33:29.347Z,20.60
2019-05-09T13:36:05.021Z,20.70
2019-05-09T13:38:37.861Z,21.00
2019-05-09T13:41:08.515Z,20.80
2019-05-09T13:43:45.980Z,21.20
2019-05-09T13:46:12.672Z,21.10
2019-05-09T13:49:01.318Z,21.20
2019-05-09T13:51:18.719Z,21.30
2019-05-09T13:53:50.524Z,21.50
2019-05-09T13:56:22.425Z,20.10
2019-05-09T13:58:52.290Z,19.70
2019-05-09T14:01:21.755Z,19.40
2019-05-09T14:03:54.676Z,18.90
2019-05-09T14:06:25.009Z,19.10
2019-05-09T14:08:59.863Z,18.90
2019-05-09T14:11:29.495Z,18.10
2019-05-09T14:14:01.783Z,18.30
2019-05-09T14:16:32.459Z,18.60
2019-05-09T14:19:25.982Z,18.60
2019-05-09T14:21:36.196Z,18.30
2019-05-09T14:24:14.864Z,18.20
2019-05-09T14:26:42.479Z,18.50
2019-05-09T14:29:13.735Z,19.30
2019-05-09T14:31:44.833Z,19.90
2019-05-09T14:34:19.830Z,19.70
2019-05-09T14:36:52.180Z,19.30
2019-05-09T14:39:21.687Z,18.50
2019-05-09T14:41:51.154Z,18.10
2019-05-09T14:44:22.252Z,18.00
2019-05-09T14:46:52.699Z,17.60
2019-05-09T14:49:23.769Z,17.10
2019-05-09T14:52:03.178Z,16.60
2019-05-09T14:54:34.422Z,15.90
2019-05-09T14:57:10.070Z,15.20
2019-05-09T14:59:42.262Z,15.00
2019-05-09T15:02:12.865Z,14.80
2019-05-09T15:04:48.639Z,14.90
2019-05-09T15:07:25.465Z,14.60
2019-05-09T15:09:59.890Z,14.40
2019-05-09T15:12:32.865Z,14.50
2019-05-09T15:15:04.803Z,14.30
2019-05-09T15:17:37.222Z,14.30
2019-05-09T15:20:08.833Z,14.50
2019-05-09T15:22:39.483Z,14.70
2019-05-09T15:25:09.485Z,14.90
2019-05-09T15:27:38.947Z,15.20
2019-05-09T15:30:12.269Z,15.50
2019-05-09T15:32:41.704Z,15.50
2019-05-09T15:35:11.909Z,15.50
2019-05-09T15:37:42.946Z,15.50
2019-05-09T15:40:13.570Z,15.40
2019-05-09T15:42:47.859Z,15.30
2019-05-09T15:45:18.988Z,15.30
2019-05-09T15:47:48.598Z,15.30
2019-05-09T15:50:23.166Z,15.30
2019-05-09T15:52:54.460Z,15.10
2019-05-09T15:55:29.959Z,14.90
2019-05-09T15:58:00.568Z,15.00
2019-05-09T16:00:31.491Z,15.20
2019-05-09T16:03:02.620Z,15.10
2019-05-09T16:05:38.548Z,15.30
2019-05-09T16:08:11.126Z,15.80
2019-05-09T16:10:41.385Z,16.10
2019-05-09T16:13:13.188Z,16.00
2019-05-09T16:15:43.134Z,16.00
2019-05-09T16:18:14.271Z,15.80
2019-05-09T16:20:48.686Z,15.80
2019-05-09T16:23:18.640Z,15.70
2019-05-09T16:25:49.144Z,15.80
2019-05-09T16:28:18.720Z,15.60
2019-05-09T16:30:50.916Z,15.50
2019-05-09T16:33:21.963Z,15.30
2019-05-09T16:36:00.526Z,14.80
2019-05-09T16:38:43.428Z,14.60
2019-05-09T16:41:03.839Z,14.50
2019-05-09T16:43:33.270Z,14.60
2019-05-09T16:46:02.883Z,14.80
2019-05-09T16:48:32.536Z,15.00
2019-05-09T16:51:04.576Z,15.00
2019-05-09T16:53:36.371Z,15.00
2019-05-09T16:56:12.686Z,15.10
2019-05-09T16:58:43.595Z,15.10
2019-05-09T17:01:19.008Z,15.10
2019-05-09T17:03:52.997Z,14.90
2019-05-09T17:06:23.484Z,14.90
2019-05-09T17:08:52.944Z,14.60
2019-05-09T17:11:22.911Z,14.70
2019-05-09T17:13:52.491Z,14.60
2019-05-09T17:16:21.994Z,14.70
2019-05-09T17:18:51.531Z,14.70
2019-05-09T17:21:28.409Z,14.90
2019-05-09T17:24:01.432Z,15.00
2019-05-09T17:26:31.969Z,15.10
2019-05-09T17:29:04.266Z,15.00
2019-05-09T17:31:33.804Z,14.50
2019-05-09T17:34:08.158Z,14.50
2019-05-09T17:36:40.543Z,14.60
2019-05-09T17:39:11.972Z,14.60
2019-05-09T17:41:46.741Z,14.80
2019-05-09T17:44:19.986Z,14.90
2019-05-09T17:46:49.495Z,15.30
2019-05-09T17:49:24.938Z,15.30
2019-05-09T17:51:58.543Z,15.30
2019-05-09T17:54:31.546Z,15.10
2019-05-09T17:57:04.655Z,15.00
2019-05-09T17:59:36.067Z,15.00
2019-05-09T18:02:08.693Z,15.00
2019-05-09T18:04:38.181Z,15.00
2019-05-09T18:07:08.788Z,14.90
2019-05-09T18:09:38.518Z,14.70
2019-05-09T18:12:08.396Z,14.60
2019-05-09T18:14:38.949Z,14.50
2019-05-09T18:17:12.497Z,14.50
2019-05-09T18:19:47.964Z,14.40
2019-05-09T18:22:22.035Z,14.30
2019-05-09T18:24:57.708Z,14.20
2019-05-09T18:27:32.269Z,14.10
2019-05-09T18:30:02.662Z,14.20
2019-05-09T18:32:42.511Z,14.20
2019-05-09T18:35:22.026Z,14.10
2019-05-09T18:37:55.946Z,14.10
2019-05-09T18:40:36.639Z,14.10
2019-05-09T18:43:11.080Z,14.10
2019-05-09T18:45:43.013Z,14.00
2019-05-09T18:48:18.721Z,14.00
2019-05-09T18:50:51.437Z,14.00
2019-05-09T18:53:20.419Z,13.90
2019-05-09T18:55:56.488Z,14.10
2019-05-09T18:58:28.388Z,13.90
2019-05-09T19:01:08.885Z,13.80
2019-05-09T19:03:43.131Z,13.80
2019-05-09T19:06:12.847Z,13.70
2019-05-09T19:08:47.471Z,13.60
2019-05-09T19:11:20.596Z,13.60
2019-05-09T19:13:50.096Z,13.60
2019-05-09T19:16:30.154Z,13.60
2019-05-09T19:19:02.191Z,13.50
2019-05-09T19:21:33.579Z,13.50
2019-05-09T19:24:04.831Z,13.50
2019-05-09T19:26:36.281Z,13.40
2019-05-09T19:29:08.500Z,13.40
2019-05-09T19:31:41.627Z,13.30
2019-05-09T19:34:12.007Z,13.50
2019-05-09T19:36:41.526Z,13.50
2019-05-09T19:39:11.712Z,13.50
2019-05-09T19:41:42.934Z,13.60
2019-05-09T19:44:12.561Z,13.60
2019-05-09T19:46:42.103Z,13.50
2019-05-09T19:49:12.784Z,13.60
2019-05-09T19:51:42.819Z,13.50
2019-05-09T19:54:13.805Z,13.40
2019-05-09T19:56:55.956Z,13.40
2019-05-09T19:59:15.413Z,13.30
2019-05-09T20:01:47.975Z,13.30
2019-05-09T20:04:21.644Z,13.30
2019-05-09T20:06:55.381Z,13.20
2019-05-09T20:09:30.113Z,13.20
2019-05-09T20:12:01.299Z,12.90
2019-05-09T20:14:34.103Z,12.90
2019-05-09T20:17:03.977Z,13.00
2019-05-09T20:19:35.741Z,12.90
2019-05-09T20:22:08.163Z,12.90
2019-05-09T20:24:40.238Z,12.90
2019-05-09T20:27:10.716Z,12.90
2019-05-09T20:29:40.239Z,12.80
2019-05-09T20:32:14.106Z,12.70
2019-05-09T20:34:46.485Z,12.70
2019-05-09T20:37:17.103Z,12.70
2019-05-09T20:39:50.076Z,12.70
2019-05-09T20:42:21.034Z,12.70
2019-05-09T20:44:52.383Z,12.70
2019-05-09T20:47:25.351Z,12.70
2019-05-09T20:49:59.591Z,12.70
2019-05-09T20:52:32.807Z,12.70
2019-05-09T20:55:04.803Z,12.50
2019-05-09T20:57:36.488Z,12.40
2019-05-09T21:00:07.545Z,12.50
2019-05-09T21:02:39.389Z,12.50
2019-05-09T21:05:09.205Z,12.40
2019-05-09T21:07:38.924Z,12.40
2019-05-09T21:10:09.389Z,12.50
2019-05-09T21:12:42.918Z,12.50
2019-05-09T21:15:18.040Z,12.40
2019-05-09T21:17:47.788Z,12.40
2019-05-09T21:20:17.505Z,12.40
2019-05-09T21:22:48.716Z,12.40
2019-05-09T21:25:27.877Z,12.40
2019-05-09T21:28:01.545Z,12.40
2019-05-09T21:30:31.258Z,12.40
2019-05-09T21:33:04.881Z,12.30
2019-05-09T21:35:34.430Z,12.30
2019-05-09T21:38:05.574Z,12.30
2019-05-09T21:40:35.050Z,12.30
2019-05-09T21:43:06.738Z,12.20
2019-05-09T21:45:37.547Z,12.20
2019-05-09T21:48:08.084Z,12.20
2019-05-09T21:50:40.097Z,12.20
2019-05-09T21:53:09.545Z,12.20
2019-05-09T21:55:45.081Z,12.20
2019-05-09T21:58:15.519Z,12.30
2019-05-09T22:00:51.021Z,12.20
2019-05-09T22:03:24.315Z,12.20
2019-05-09T22:05:59.466Z,12.10
2019-05-09T22:08:35.725Z,12.00
2019-05-09T22:11:13.824Z,12.00
2019-05-09T22:13:44.953Z,12.00
2019-05-09T22:16:14.526Z,12.00
2019-05-09T22:18:46.149Z,12.20
2019-05-09T22:31:34.974Z,12.10
2019-05-09T22:34:05.646Z,12.10
2019-05-09T22:36:37.485Z,12.00
2019-05-09T22:39:08.690Z,12.10
2019-05-09T22:41:39.010Z,12.00
2019-05-09T22:44:08.482Z,12.10
2019-05-09T22:46:37.998Z,12.20
2019-05-09T22:49:08.457Z,12.20
2019-05-09T22:51:38.889Z,12.20
2019-05-09T22:54:12.798Z,12.20
2019-05-09T22:56:40.875Z,12.10
2019-05-09T22:59:11.966Z,12.20
2019-05-09T23:01:41.513Z,12.10
2019-05-09T23:04:13.060Z,12.10
2019-05-09T23:06:42.805Z,12.10
2019-05-09T23:09:13.369Z,12.20
2019-05-09T23:11:44.549Z,12.20
2019-05-09T23:14:15.543Z,12.00
2019-05-09T23:16:50.284Z,12.00
2019-05-09T23:19:18.193Z,12.10
2019-05-09T23:21:49.145Z,12.10
2019-05-09T23:24:28.603Z,12.10
2019-05-09T23:26:56.049Z,12.00
2019-05-09T23:29:26.600Z,12.00
2019-05-09T23:32:12.052Z,11.90
2019-05-09T23:34:42.639Z,12.00
2019-05-09T23:37:14.429Z,12.00
2019-05-09T23:39:45.646Z,12.10
2019-05-09T23:42:15.941Z,12.10
2019-05-09T23:44:45.424Z,12.10
2019-05-09T23:47:17.101Z,12.10
2019-05-09T23:49:46.543Z,12.10
2019-05-09T23:52:19.543Z,12.10
2019-05-09T23:55:07.426Z,12.00
